Time;durP1;ratioP1;P1;durP2;ratioP2;P2;SDS_P1;SDS_P2;PMS_P1;PMS_P2;Temp;Humidity;BMP_temperature;BMP_pressure;BME280_temperature;BME280_humidity;BME280_pressure;Samples;Min_cycle;Max_cycle;Signal;HPM_P1;HPM_P2
2022/03/01 00:00:22;;;;;;;3.22;2.70;;;24.60;37.90;;;;;;5041242;28;20581;-49
2022/03/01 00:02:49;;;;;;;4.13;2.47;;;24.60;37.90;;;;;;5045247;28;20126;-46
2022/03/01 00:05:16;;;;;;;2.83;2.55;;;24.60;37.90;;;;;;5043535;28;20131;-47
2022/03/01 00:07:44;;;;;;;2.92;2.22;;;24.60;37.90;;;;;;5042826;28;20053;-48
2022/03/01 00:10:12;;;;;;;4.60;1.90;;;24.60;37.90;;;;;;5045373;28;20045;-49
2022/03/01 00:12:39;;;;;;;4.28;3.17;;;24.60;37.90;;;;;;5045085;28;20128;-49
2022/03/01 00:15:07;;;;;;;2.67;2.17;;;24.60;37.80;;;;;;5047132;28;20049;-48
2022/03/01 00:17:35;;;;;;;3.40;2.13;;;24.60;37.70;;;;;;5043794;28;20044;-51
2022/03/01 00:20:02;;;;;;;7.28;2.55;;;24.60;37.70;;;;;;5041587;28;20045;-46
2022/03/01 00:22:29;;;;;;;5.28;2.55;;;24.60;37.70;;;;;;5046684;28;20037;-46
2022/03/01 00:24:59;;;;;;;6.75;1.77;;;24.60;37.70;;;;;;5047506;28;20036;-49
2022/03/01 00:27:26;;;;;;;3.22;2.08;;;24.60;37.70;;;;;;5044782;28;20179;-49
2022/03/01 00:29:54;;;;;;;2.17;1.88;;;24.60;37.70;;;;;;5037840;28;20045;-49
2022/03/01 00:32:21;;;;;;;2.63;2.25;;;24.60;37.70;;;;;;5044081;28;20051;-48
2022/03/01 00:34:50;;;;;;;1.85;1.75;;;24.60;37.80;;;;;;5043992;28;20048;-48
2022/03/01 00:37:17;;;;;;;3.92;2.25;;;24.60;37.80;;;;;;5044259;28;20098;-47
2022/03/01 00:39:44;;;;;;;3.72;1.90;;;24.60;37.80;;;;;;5044395;28;20410;-47
2022/03/01 00:42:13;;;;;;;7.95;2.58;;;24.60;37.80;;;;;;5042320;28;20051;-47
2022/03/01 00:44:40;;;;;;;2.15;1.33;;;24.60;37.90;;;;;;5047159;28;20146;-48
2022/03/01 00:47:07;;;;;;;3.13;2.30;;;24.60;37.90;;;;;;5043558;28;20037;-51
2022/03/01 00:49:34;;;;;;;8.82;2.22;;;24.60;37.90;;;;;;5042902;28;20044;-47
2022/03/01 00:52:01;;;;;;;3.42;2.45;;;24.60;37.70;;;;;;5045542;28;20120;-48
2022/03/01 00:54:28;;;;;;;1.65;1.42;;;24.60;37.70;;;;;;5043227;28;20041;-48
2022/03/01 00:56:56;;;;;;;3.15;2.92;;;24.60;37.70;;;;;;5048815;28;20068;-49
2022/03/01 00:59:24;;;;;;;2.92;2.72;;;24.60;37.70;;;;;;5041331;28;20044;-46
2022/03/01 01:01:51;;;;;;;2.97;1.77;;;24.60;37.70;;;;;;5043212;28;20242;-45
2022/03/01 01:04:18;;;;;;;1.65;1.55;;;24.50;37.70;;;;;;5044113;28;20041;-54
2022/03/01 01:06:45;;;;;;;4.63;1.88;;;24.60;37.70;;;;;;5043616;28;20049;-48
2022/03/01 01:09:14;;;;;;;3.97;2.38;;;24.60;37.80;;;;;;5045508;28;20060;-45
2022/03/01 01:11:41;;;;;;;2.70;1.98;;;24.60;37.80;;;;;;5040496;28;20109;-47
2022/03/01 01:14:08;;;;;;;4.22;2.08;;;24.60;37.90;;;;;;5045290;28;20040;-48
2022/03/01 01:16:36;;;;;;;2.65;2.45;;;24.50;37.80;;;;;;5043931;28;20076;-47
2022/03/01 01:19:04;;;;;;;3.08;1.60;;;24.60;37.90;;;;;;5043885;28;20049;-49
2022/03/01 01:24:12;;;;;;;2.28;1.73;;;24.60;38.10;;;;;;5040911;28;20067;-47
2022/03/01 01:26:39;;;;;;;2.22;2.03;;;24.50;38.00;;;;;;5047248;28;20051;-50
2022/03/01 01:29:06;;;;;;;3.50;2.33;;;24.50;38.00;;;;;;5042713;28;20139;-50
2022/03/01 01:31:33;;;;;;;4.68;2.00;;;24.50;38.00;;;;;;5041359;28;20441;-49
2022/03/01 01:34:01;;;;;;;3.70;2.45;;;24.50;38.10;;;;;;5043442;28;20068;-51
2022/03/01 01:36:29;;;;;;;4.28;2.17;;;24.50;38.10;;;;;;5042711;28;20040;-50
2022/03/01 01:38:57;;;;;;;3.58;2.03;;;24.50;38.10;;;;;;5043681;28;20045;-45
2022/03/01 01:41:25;;;;;;;2.30;2.03;;;24.50;38.00;;;;;;5039386;28;20146;-51
2022/03/01 01:43:52;;;;;;;4.07;2.05;;;24.50;38.10;;;;;;5044200;28;20080;-45
2022/03/01 01:46:19;;;;;;;2.28;2.10;;;24.50;38.00;;;;;;5043908;28;20045;-51
2022/03/01 01:48:46;;;;;;;3.03;2.80;;;24.50;38.00;;;;;;5041671;28;20048;-49
2022/03/01 01:51:14;;;;;;;5.72;2.38;;;24.50;38.60;;;;;;5042448;28;20503;-51
2022/03/01 01:53:41;;;;;;;1.95;1.67;;;24.50;37.90;;;;;;5042486;28;20045;-48
2022/03/01 01:56:08;;;;;;;2.28;2.08;;;24.50;37.90;;;;;;5044862;28;20043;-48
2022/03/01 01:58:35;;;;;;;3.03;2.75;;;24.50;37.90;;;;;;5042669;28;20055;-46
2022/03/01 02:01:02;;;;;;;2.47;2.22;;;24.40;37.80;;;;;;5041708;28;20061;-48
2022/03/01 02:03:29;;;;;;;1.85;1.75;;;24.50;37.80;;;;;;5045315;28;20122;-50
2022/03/01 02:05:56;;;;;;;2.30;1.60;;;24.40;37.70;;;;;;5042235;28;20037;-51
2022/03/01 02:08:30;;;;;;;3.45;2.70;;;24.40;37.80;;;;;;5037203;28;20060;-48
2022/03/01 02:10:58;;;;;;;2.35;1.92;;;24.50;37.90;;;;;;5036468;28;20037;-48
2022/03/01 02:13:26;;;;;;;3.38;2.60;;;24.40;37.90;;;;;;5042766;28;20041;-51
2022/03/01 02:15:53;;;;;;;2.65;2.42;;;24.50;37.80;;;;;;5041361;28;20041;-52
2022/03/01 02:18:21;;;;;;;2.33;2.13;;;24.50;37.80;;;;;;5041721;28;20446;-51
2022/03/01 02:20:50;;;;;;;3.22;2.67;;;24.50;37.80;;;;;;5040995;28;20132;-51
2022/03/01 02:23:17;;;;;;;2.30;2.10;;;24.40;37.80;;;;;;5041721;28;20130;-49
2022/03/01 02:25:44;;;;;;;3.70;3.33;;;24.50;37.80;;;;;;5044714;28;20045;-49
2022/03/01 02:28:11;;;;;;;6.57;2.78;;;24.40;37.80;;;;;;5042720;28;20064;-48
2022/03/01 02:30:38;;;;;;;4.88;2.85;;;24.40;37.80;;;;;;5039538;28;20436;-47
2022/03/01 02:33:05;;;;;;;3.28;2.97;;;24.40;37.80;;;;;;5044269;28;20040;-49
2022/03/01 02:35:32;;;;;;;3.40;3.20;;;24.50;37.80;;;;;;5041911;28;20041;-45
2022/03/01 02:38:01;;;;;;;4.72;4.18;;;24.50;37.90;;;;;;5039841;28;20056;-47
2022/03/01 02:40:28;;;;;;;6.10;3.63;;;24.40;37.70;;;;;;5040836;28;20063;-49
2022/03/01 02:42:55;;;;;;;7.22;4.28;;;24.40;37.60;;;;;;5043621;28;20041;-46
2022/03/01 02:45:22;;;;;;;3.35;3.08;;;24.40;37.50;;;;;;5040927;28;20053;-48
2022/03/01 02:47:49;;;;;;;5.07;3.10;;;24.40;37.50;;;;;;5041258;28;20467;-45
2022/03/01 02:50:17;;;;;;;3.72;3.38;;;24.40;37.50;;;;;;5038761;28;20045;-45
2022/03/01 02:52:45;;;;;;;4.45;3.42;;;24.40;37.40;;;;;;5037927;28;20040;-45
2022/03/01 02:55:13;;;;;;;4.00;3.65;;;24.50;37.40;;;;;;5048019;28;20124;-46
2022/03/01 02:57:42;;;;;;;3.08;2.35;;;24.40;37.30;;;;;;5045005;28;20045;-48
2022/03/01 03:00:11;;;;;;;2.78;2.58;;;24.40;37.30;;;;;;5042280;28;20517;-47
2022/03/01 03:02:39;;;;;;;4.00;2.90;;;24.40;37.30;;;;;;5044954;28;20155;-46
2022/03/01 03:05:07;;;;;;;3.30;2.63;;;24.40;37.20;;;;;;5044739;28;20592;-46
2022/03/01 03:07:34;;;;;;;3.10;2.53;;;24.40;37.10;;;;;;5049208;28;20124;-46
2022/03/01 03:10:01;;;;;;;4.47;2.55;;;24.40;37.10;;;;;;5043978;28;20114;-46
2022/03/01 03:12:30;;;;;;;3.17;2.92;;;24.40;37.00;;;;;;5042890;28;20048;-46
2022/03/01 03:14:57;;;;;;;2.85;2.60;;;24.40;37.00;;;;;;5042084;28;20577;-44
2022/03/01 03:17:24;;;;;;;3.95;2.67;;;24.40;36.90;;;;;;5044459;28;20494;-46
2022/03/01 03:19:51;;;;;;;4.18;2.95;;;24.40;36.90;;;;;;5042753;28;20327;-46
2022/03/01 03:22:19;;;;;;;2.33;2.22;;;24.40;36.90;;;;;;5041459;28;20052;-45
2022/03/01 03:24:46;;;;;;;3.35;2.80;;;24.40;36.80;;;;;;5046073;28;20074;-49
2022/03/01 03:27:13;;;;;;;5.35;2.85;;;24.40;36.80;;;;;;5044680;28;20048;-48
2022/03/01 03:29:41;;;;;;;5.78;3.45;;;24.40;36.80;;;;;;5042380;28;20045;-47
2022/03/01 03:32:09;;;;;;;3.67;3.38;;;24.40;36.80;;;;;;5041962;28;20123;-48
2022/03/01 03:34:36;;;;;;;4.90;2.90;;;24.40;36.70;;;;;;5044439;28;20041;-48
2022/03/01 03:37:03;;;;;;;3.13;2.92;;;24.40;36.60;;;;;;5047921;28;20116;-50
2022/03/01 03:39:30;;;;;;;7.60;3.30;;;24.40;36.60;;;;;;5041261;28;20512;-45
2022/03/01 03:41:57;;;;;;;3.08;2.88;;;24.40;36.60;;;;;;5042069;28;20059;-45
2022/03/01 03:44:24;;;;;;;4.07;3.30;;;24.40;36.50;;;;;;5045173;28;20037;-47
2022/03/01 03:46:53;;;;;;;3.42;3.13;;;24.40;36.50;;;;;;5043370;28;20043;-46
2022/03/01 03:49:22;;;;;;;3.05;2.72;;;24.40;36.50;;;;;;5043796;28;20048;-47
2022/03/01 03:51:49;;;;;;;6.75;3.20;;;24.40;36.50;;;;;;5042404;28;20895;-47
2022/03/01 03:54:17;;;;;;;3.10;2.63;;;24.30;36.40;;;;;;5043291;28;20037;-45
2022/03/01 03:56:45;;;;;;;3.97;3.67;;;24.40;36.40;;;;;;5042970;28;20182;-50
2022/03/01 03:59:12;;;;;;;4.18;3.50;;;24.30;36.30;;;;;;5043007;28;20053;-45
2022/03/01 04:01:39;;;;;;;2.13;1.95;;;24.30;36.30;;;;;;5041566;28;20045;-45
2022/03/01 04:04:08;;;;;;;3.28;3.03;;;24.40;36.30;;;;;;5043819;28;20097;-48
2022/03/01 04:06:35;;;;;;;4.80;3.03;;;24.30;36.30;;;;;;5042985;28;20139;-47
2022/03/01 04:09:03;;;;;;;5.97;3.70;;;24.30;36.40;;;;;;5046018;28;20053;-46
2022/03/01 04:11:30;;;;;;;3.40;3.20;;;24.30;36.40;;;;;;5038191;28;20040;-47
2022/03/01 04:13:57;;;;;;;3.97;2.88;;;24.30;36.40;;;;;;5044429;28;20041;-45
2022/03/01 04:16:27;;;;;;;4.97;2.88;;;24.30;36.30;;;;;;5044602;28;20045;-45
2022/03/01 04:18:54;;;;;;;2.80;2.47;;;24.30;36.20;;;;;;5043029;28;20123;-45
2022/03/01 04:21:23;;;;;;;2.35;2.17;;;24.30;36.20;;;;;;5039912;28;20041;-48
2022/03/01 04:23:50;;;;;;;2.80;2.22;;;24.30;36.80;;;;;;5042608;28;20045;-45
2022/03/01 04:26:17;;;;;;;3.75;3.45;;;24.30;36.10;;;;;;5045046;28;20037;-47
2022/03/01 04:28:44;;;;;;;4.10;3.13;;;24.30;36.00;;;;;;5043516;28;20037;-46
2022/03/01 04:31:11;;;;;;;2.78;2.55;;;24.30;36.00;;;;;;5039112;28;20056;-46
2022/03/01 04:33:38;;;;;;;3.25;3.05;;;24.30;36.00;;;;;;5042874;28;20048;-46
2022/03/01 04:36:06;;;;;;;2.88;2.67;;;24.30;36.00;;;;;;5043136;28;20041;-45
2022/03/01 04:38:34;;;;;;;3.55;2.92;;;24.20;35.90;;;;;;5045125;28;20045;-44
2022/03/01 04:41:01;;;;;;;3.60;3.28;;;24.30;36.00;;;;;;5039028;28;20051;-45
2022/03/01 04:43:28;;;;;;;2.53;2.33;;;24.20;35.90;;;;;;5040892;28;20041;-44
2022/03/01 04:45:56;;;;;;;3.80;3.40;;;24.20;35.80;;;;;;5042074;28;20794;-45
2022/03/01 04:48:23;;;;;;;3.15;2.78;;;24.20;35.80;;;;;;5042303;28;20410;-45
2022/03/01 04:50:50;;;;;;;4.07;2.00;;;24.20;35.80;;;;;;5043678;28;20525;-46
2022/03/01 04:53:18;;;;;;;3.42;2.80;;;24.20;35.80;;;;;;5038330;28;20545;-46
2022/03/01 04:55:47;;;;;;;2.95;2.58;;;24.20;35.80;;;;;;5044277;28;20684;-45
2022/03/01 04:58:14;;;;;;;3.60;3.30;;;24.20;35.80;;;;;;5043595;28;20049;-46
2022/03/01 05:00:41;;;;;;;4.05;3.40;;;24.20;35.80;;;;;;5039350;28;20059;-46
2022/03/01 05:03:08;;;;;;;3.90;3.45;;;24.20;35.80;;;;;;5041728;28;20041;-46
2022/03/01 05:05:35;;;;;;;2.70;2.35;;;24.20;35.70;;;;;;5042136;28;20075;-48
2022/03/01 05:08:02;;;;;;;3.47;3.15;;;24.20;35.80;;;;;;5043495;28;20046;-46
2022/03/01 05:10:30;;;;;;;3.63;2.47;;;24.20;35.70;;;;;;5041480;28;20446;-48
2022/03/01 05:13:01;;;;;;;2.85;2.10;;;24.20;35.70;;;;;;5043568;28;20691;-46
2022/03/01 05:15:29;;;;;;;3.72;3.42;;;24.20;35.70;;;;;;5041747;28;20091;-48
2022/03/01 05:17:57;;;;;;;2.25;2.08;;;24.20;35.70;;;;;;5041059;28;20037;-46
2022/03/01 05:20:25;;;;;;;2.80;2.45;;;24.20;35.60;;;;;;5043351;28;20067;-48
2022/03/01 05:22:53;;;;;;;3.67;2.60;;;24.10;35.60;;;;;;5041001;28;20045;-46
2022/03/01 05:25:22;;;;;;;3.58;2.30;;;24.20;35.60;;;;;;5045102;28;20053;-47
2022/03/01 05:27:51;;;;;;;3.15;2.53;;;24.20;35.70;;;;;;5041220;28;20135;-50
2022/03/01 05:30:21;;;;;;;2.72;2.53;;;24.10;35.50;;;;;;5040216;28;20049;-51
2022/03/01 05:32:51;;;;;;;4.53;4.05;;;24.10;35.50;;;;;;5040150;28;20041;-45
2022/03/01 05:35:20;;;;;;;2.50;2.17;;;24.10;35.50;;;;;;5037494;28;20182;-49
2022/03/01 05:37:49;;;;;;;4.05;3.08;;;24.10;35.60;;;;;;5043121;28;20045;-49
2022/03/01 05:40:17;;;;;;;3.80;2.75;;;24.10;35.50;;;;;;5041618;28;20045;-48
2022/03/01 05:42:44;;;;;;;3.47;2.60;;;24.10;35.50;;;;;;5040139;28;20066;-48
2022/03/01 05:45:12;;;;;;;5.28;2.75;;;24.10;35.40;;;;;;5041616;28;20165;-45
2022/03/01 05:47:43;;;;;;;2.78;2.58;;;24.10;35.50;;;;;;5041130;28;20047;-47
2022/03/01 05:50:10;;;;;;;7.20;3.28;;;24.10;35.50;;;;;;5043481;28;20044;-47
2022/03/01 05:52:38;;;;;;;6.57;3.55;;;24.10;35.50;;;;;;5037877;28;20041;-45
2022/03/01 05:55:07;;;;;;;2.58;2.38;;;24.10;35.50;;;;;;5042651;28;20049;-45
2022/03/01 05:57:34;;;;;;;3.58;3.13;;;24.10;35.50;;;;;;5038463;28;20141;-45
2022/03/01 06:00:02;;;;;;;3.90;2.17;;;24.10;35.50;;;;;;5037158;28;20597;-48
2022/03/01 06:02:41;;;;;;;2.90;2.20;;;24.00;35.40;;;;;;5039683;28;20517;-50
2022/03/01 06:05:09;;;;;;;2.30;2.10;;;24.10;35.50;;;;;;5041063;28;20068;-46
2022/03/01 06:07:37;;;;;;;3.17;2.05;;;24.00;35.50;;;;;;5038337;28;20051;-46
2022/03/01 06:10:05;;;;;;;7.30;2.47;;;24.10;35.60;;;;;;5040661;28;20135;-49
2022/03/01 06:12:33;;;;;;;2.83;2.53;;;24.10;35.60;;;;;;5040232;28;20056;-47
2022/03/01 06:15:00;;;;;;;2.75;2.05;;;24.00;35.60;;;;;;5040049;28;20597;-45
2022/03/01 06:17:27;;;;;;;1.60;1.50;;;24.00;35.60;;;;;;5041564;28;20041;-45
2022/03/01 06:19:56;;;;;;;3.03;2.72;;;24.00;35.60;;;;;;5043814;28;20045;-45
2022/03/01 06:22:23;;;;;;;2.78;2.58;;;24.00;35.60;;;;;;5041026;28;20043;-45
2022/03/01 06:24:50;;;;;;;5.78;2.58;;;24.00;35.70;;;;;;5042147;28;20060;-47
2022/03/01 06:27:18;;;;;;;2.85;2.58;;;24.00;35.70;;;;;;5041553;28;20037;-49
2022/03/01 06:29:45;;;;;;;6.35;2.75;;;23.90;35.70;;;;;;5041539;28;20133;-47
2022/03/01 06:32:13;;;;;;;6.32;3.10;;;24.00;35.70;;;;;;5044066;28;20037;-47
2022/03/01 06:34:40;;;;;;;6.88;2.75;;;24.00;35.80;;;;;;5045508;28;20044;-46
2022/03/01 06:37:13;;;;;;;2.25;2.05;;;23.90;35.70;;;;;;5048343;28;20042;-46
2022/03/01 06:39:42;;;;;;;3.15;2.47;;;24.00;35.80;;;;;;5043246;28;20055;-46
2022/03/01 06:42:09;;;;;;;3.70;2.22;;;23.90;35.70;;;;;;5043621;28;20048;-45
2022/03/01 06:44:37;;;;;;;4.18;2.25;;;23.90;35.70;;;;;;5045165;28;20051;-47
2022/03/01 06:47:05;;;;;;;3.10;2.53;;;24.00;35.80;;;;;;5045425;28;20048;-51
2022/03/01 06:49:33;;;;;;;3.72;2.83;;;24.00;35.80;;;;;;5047713;28;21205;-45
2022/03/01 06:52:00;;;;;;;5.22;2.80;;;24.00;35.40;;;;;;5043438;28;20033;-46
2022/03/01 06:54:29;;;;;;;1.65;1.50;;;23.90;35.80;;;;;;5044484;28;20661;-45
2022/03/01 06:56:56;;;;;;;2.33;2.22;;;23.90;35.70;;;;;;5044839;28;20045;-49
2022/03/01 06:59:26;;;;;;;2.92;2.72;;;23.90;35.70;;;;;;5046181;28;20055;-45
2022/03/01 07:01:55;;;;;;;5.07;3.33;;;23.90;36.20;;;;;;5033291;28;20037;-47
2022/03/01 07:04:22;;;;;;;2.58;1.75;;;23.80;37.00;;;;;;5035693;28;20465;-45
2022/03/01 07:06:49;;;;;;;1.90;1.80;;;23.80;37.40;;;;;;5043719;28;20041;-47
2022/03/01 07:09:16;;;;;;;2.95;2.10;;;23.70;37.80;;;;;;5043106;28;20037;-44
2022/03/01 07:11:46;;;;;;;2.45;2.25;;;23.60;38.00;;;;;;5034752;28;20052;-46
2022/03/01 07:14:14;;;;;;;1.75;1.50;;;23.50;38.30;;;;;;5049304;28;20041;-49
2022/03/01 07:16:41;;;;;;;3.60;1.80;;;23.40;38.40;;;;;;5033600;28;20084;-45
2022/03/01 07:19:09;;;;;;;3.38;2.17;;;23.30;38.60;;;;;;5036888;28;20037;-52
2022/03/01 07:21:36;;;;;;;3.25;2.95;;;23.20;38.60;;;;;;5041271;28;20048;-45
2022/03/01 07:24:04;;;;;;;5.13;2.20;;;23.10;38.90;;;;;;5037444;28;20128;-42
2022/03/01 07:26:31;;;;;;;2.30;2.10;;;23.00;39.80;;;;;;5031889;28;20095;-41
2022/03/01 07:29:00;;;;;;;6.80;1.48;;;23.00;39.20;;;;;;5033195;28;20076;-43
2022/03/01 07:31:28;;;;;;;4.35;2.53;;;22.90;39.40;;;;;;5030431;28;20069;-39
2022/03/01 07:33:56;;;;;;;4.45;1.85;;;22.90;39.50;;;;;;5044613;28;20925;-40
2022/03/01 07:36:23;;;;;;;4.97;2.17;;;22.80;39.50;;;;;;5043931;28;20037;-42
2022/03/01 07:38:51;;;;;;;5.35;2.03;;;22.80;39.50;;;;;;5046624;28;20120;-41
2022/03/01 07:41:20;;;;;;;5.38;1.73;;;22.70;39.70;;;;;;5045400;28;20045;-42
2022/03/01 07:43:47;;;;;;;3.33;2.40;;;22.70;39.80;;;;;;5046848;28;20058;-40
2022/03/01 07:46:16;;;;;;;1.75;1.48;;;22.60;39.80;;;;;;5045409;28;20053;-41
2022/03/01 07:48:44;;;;;;;3.25;1.73;;;22.60;39.90;;;;;;5038856;28;20167;-43
2022/03/01 07:51:11;;;;;;;5.93;1.98;;;22.60;40.00;;;;;;5036972;28;20053;-43
2022/03/01 07:53:39;;;;;;;3.95;2.10;;;22.50;40.00;;;;;;5043927;28;20056;-42
2022/03/01 07:56:07;;;;;;;5.45;2.13;;;22.50;39.90;;;;;;5047376;28;20037;-42
2022/03/01 07:58:34;;;;;;;7.75;2.90;;;22.50;39.90;;;;;;5045499;28;20594;-42
2022/03/01 08:01:02;;;;;;;4.00;3.28;;;22.40;39.80;;;;;;5044467;28;20088;-41
2022/03/01 08:03:30;;;;;;;4.47;3.13;;;22.40;39.70;;;;;;5040272;28;20041;-42
2022/03/01 08:05:58;;;;;;;4.00;2.20;;;22.40;39.60;;;;;;5037713;28;20036;-40
2022/03/01 08:08:27;;;;;;;3.45;2.05;;;22.40;39.70;;;;;;5044552;28;20099;-41
2022/03/01 08:10:54;;;;;;;2.42;2.22;;;22.30;39.80;;;;;;5047169;28;20686;-42
2022/03/01 08:13:21;;;;;;;3.10;2.75;;;22.30;40.10;;;;;;5045156;28;20574;-41
2022/03/01 08:15:48;;;;;;;3.95;2.53;;;22.30;40.00;;;;;;5043137;28;20541;-39
2022/03/01 08:18:15;;;;;;;5.70;1.67;;;22.30;40.10;;;;;;5043261;28;20044;-42
2022/03/01 08:20:44;;;;;;;7.85;3.08;;;22.30;40.30;;;;;;5061348;28;20054;-40
2022/03/01 08:23:11;;;;;;;2.63;2.40;;;22.20;40.30;;;;;;5049947;28;20698;-39
2022/03/01 08:25:38;;;;;;;9.82;3.15;;;22.20;40.50;;;;;;5044607;28;20056;-39
2022/03/01 08:28:06;;;;;;;4.50;3.08;;;22.20;40.50;;;;;;5036059;28;20047;-40
2022/03/01 08:30:35;;;;;;;6.22;1.98;;;22.20;40.40;;;;;;5039838;28;20136;-41
2022/03/01 08:33:02;;;;;;;5.57;2.20;;;22.20;40.40;;;;;;5043330;28;20528;-40
2022/03/01 08:35:32;;;;;;;2.65;1.92;;;22.20;41.20;;;;;;5041056;28;20037;-42
2022/03/01 08:38:02;;;;;;;3.72;2.45;;;22.20;41.50;;;;;;5043088;28;20033;-45
2022/03/01 08:40:31;;;;;;;3.40;1.38;;;22.20;41.80;;;;;;5042071;28;20065;-42
2022/03/01 08:42:59;;;;;;;7.07;2.97;;;22.20;41.90;;;;;;5047442;28;20071;-45
2022/03/01 08:45:27;;;;;;;2.95;2.65;;;22.20;41.90;;;;;;5042762;28;20041;-43
2022/03/01 08:47:55;;;;;;;5.07;2.60;;;22.20;42.00;;;;;;5045821;28;20045;-43
2022/03/01 08:50:22;;;;;;;2.13;1.83;;;22.20;42.00;;;;;;5038855;28;20056;-42
2022/03/01 08:52:50;;;;;;;3.20;2.25;;;22.20;41.90;;;;;;5043675;28;20037;-42
2022/03/01 08:55:19;;;;;;;7.03;2.22;;;22.30;42.00;;;;;;5045035;28;20087;-44
2022/03/01 08:57:47;;;;;;;4.32;2.05;;;22.20;41.90;;;;;;5042979;28;20163;-43
2022/03/01 09:00:16;;;;;;;3.65;2.38;;;22.20;41.90;;;;;;5044487;28;20040;-51
2022/03/01 09:02:44;;;;;;;3.78;2.10;;;22.30;41.90;;;;;;5041644;28;20450;-43
2022/03/01 09:05:12;;;;;;;5.45;2.55;;;22.30;41.90;;;;;;5047253;28;20126;-43
2022/03/01 09:07:39;;;;;;;8.00;2.35;;;22.30;41.90;;;;;;5030902;28;20053;-43
2022/03/01 09:10:08;;;;;;;6.32;3.08;;;22.30;41.80;;;;;;5043287;28;20096;-43
2022/03/01 09:12:36;;;;;;;3.80;2.70;;;22.30;41.80;;;;;;5042799;28;20503;-43
2022/03/01 09:15:06;;;;;;;4.45;3.53;;;22.30;41.80;;;;;;5042416;28;20073;-44
2022/03/01 09:17:34;;;;;;;3.38;1.95;;;22.30;41.90;;;;;;5046649;28;20045;-44
2022/03/01 09:20:03;;;;;;;5.22;2.58;;;22.20;41.80;;;;;;5031120;28;20131;-42
2022/03/01 09:22:30;;;;;;;3.38;2.38;;;22.20;41.70;;;;;;5036132;28;20049;-42
2022/03/01 09:24:58;;;;;;;5.97;3.03;;;22.30;41.80;;;;;;5042659;28;20124;-44
2022/03/01 09:27:26;;;;;;;7.43;2.90;;;22.20;41.70;;;;;;5041703;28;20052;-43
2022/03/01 09:29:55;;;;;;;3.65;2.28;;;22.30;41.70;;;;;;5041991;28;20223;-41
2022/03/01 09:32:22;;;;;;;8.32;3.92;;;22.30;41.70;;;;;;5043460;28;20965;-41
2022/03/01 09:34:50;;;;;;;7.70;3.83;;;22.30;41.70;;;;;;5045217;28;20478;-43
2022/03/01 09:37:18;;;;;;;7.20;3.35;;;22.30;41.60;;;;;;5042737;28;20045;-42
2022/03/01 09:39:45;;;;;;;4.97;2.65;;;22.30;41.60;;;;;;5041751;28;20041;-41
2022/03/01 09:42:14;;;;;;;5.93;3.78;;;22.30;41.50;;;;;;5041573;28;20117;-42
2022/03/01 09:44:42;;;;;;;6.05;3.33;;;22.30;41.50;;;;;;5045299;28;20037;-41
2022/03/01 09:47:11;;;;;;;3.38;2.15;;;22.30;41.50;;;;;;5031592;28;20044;-40
2022/03/01 09:49:38;;;;;;;3.97;2.40;;;22.30;41.40;;;;;;5030444;28;20042;-41
2022/03/01 09:52:07;;;;;;;4.07;3.17;;;22.30;41.30;;;;;;5046011;28;20409;-44
2022/03/01 09:54:35;;;;;;;8.10;2.80;;;22.30;41.30;;;;;;5041682;28;20514;-43
2022/03/01 09:57:04;;;;;;;3.42;2.38;;;22.40;41.30;;;;;;5041523;28;20048;-41
2022/03/01 09:59:31;;;;;;;7.78;3.47;;;22.40;41.30;;;;;;5042341;28;20080;-48
2022/03/01 10:01:59;;;;;;;3.45;2.65;;;22.30;41.20;;;;;;5045569;28;20077;-41
2022/03/01 10:04:27;;;;;;;6.55;2.30;;;22.30;41.20;;;;;;5042252;28;20126;-42
2022/03/01 10:06:55;;;;;;;6.68;3.05;;;22.30;41.20;;;;;;5041435;28;20091;-42
2022/03/01 10:09:24;;;;;;;3.70;2.85;;;22.40;41.30;;;;;;5041652;28;20037;-44
2022/03/01 10:11:53;;;;;;;3.08;2.22;;;22.40;41.30;;;;;;5041352;28;20041;-42
2022/03/01 10:14:28;;;;;;;4.97;3.33;;;22.30;41.20;;;;;;5043012;28;20039;-43
2022/03/01 10:16:56;;;;;;;3.13;2.38;;;22.40;41.30;;;;;;5045200;28;20041;-43
2022/03/01 10:19:24;;;;;;;3.85;2.45;;;22.40;41.20;;;;;;5042813;28;20047;-43
2022/03/01 10:22:01;;;;;;;6.53;2.97;;;22.40;41.10;;;;;;5041607;28;20099;-42
2022/03/01 10:24:28;;;;;;;8.20;3.22;;;22.50;41.10;;;;;;5038243;28;20045;-61
2022/03/01 10:26:57;;;;;;;8.43;2.97;;;22.40;41.20;;;;;;5034788;28;20049;-61
2022/03/01 10:29:27;;;;;;;5.25;2.40;;;22.50;41.30;;;;;;5029750;28;20521;-58
2022/03/01 10:31:59;;;;;;;4.43;2.75;;;22.50;41.20;;;;;;5045241;28;20052;-57
2022/03/01 10:34:27;;;;;;;2.70;2.33;;;22.50;41.10;;;;;;5042647;28;20567;-61
2022/03/01 10:36:55;;;;;;;5.90;3.42;;;22.50;41.10;;;;;;5045329;28;20045;-61
2022/03/01 10:39:29;;;;;;;2.72;1.85;;;22.50;41.10;;;;;;5039534;28;20402;-57
2022/03/01 10:41:57;;;;;;;3.78;2.45;;;22.60;41.20;;;;;;5041547;28;20045;-59
2022/03/01 10:44:28;;;;;;;3.65;2.75;;;22.60;41.20;;;;;;5041937;28;20041;-60
2022/03/01 10:46:59;;;;;;;5.53;3.40;;;22.60;41.20;;;;;;5045107;28;20037;-60
2022/03/01 10:49:29;;;;;;;4.93;2.53;;;22.60;41.20;;;;;;5031301;28;20054;-60
2022/03/01 10:51:59;;;;;;;2.20;1.98;;;22.60;41.10;;;;;;5041547;28;20073;-60
2022/03/01 10:54:31;;;;;;;2.85;2.63;;;22.60;41.10;;;;;;5034103;28;20558;-60
2022/03/01 10:57:00;;;;;;;3.67;3.25;;;22.60;41.00;;;;;;5049949;28;20128;-60
2022/03/01 10:59:29;;;;;;;5.43;2.33;;;22.60;41.10;;;;;;5029764;28;20599;-60
2022/03/01 11:01:57;;;;;;;5.20;2.47;;;22.70;41.10;;;;;;5045178;28;20047;-62
2022/03/01 11:04:25;;;;;;;5.45;2.38;;;22.60;41.10;;;;;;5031617;28;20585;-59
2022/03/01 11:06:54;;;;;;;4.93;3.00;;;22.60;41.20;;;;;;5044691;28;20073;-59
2022/03/01 11:09:26;;;;;;;7.38;3.63;;;22.60;41.20;;;;;;5040699;28;20095;-59
2022/03/01 11:11:55;;;;;;;7.35;2.17;;;22.70;41.30;;;;;;5042294;28;20208;-59
2022/03/01 11:14:27;;;;;;;3.50;2.35;;;22.70;41.30;;;;;;5028318;28;20586;-63
2022/03/01 11:17:02;;;;;;;4.20;2.55;;;22.70;41.30;;;;;;5045634;28;20037;-57
2022/03/01 11:19:47;;;;;;;3.73;2.50;;;22.70;41.40;;;;;;5045961;28;20128;-58
2022/03/01 11:22:21;;;;;;;3.80;2.47;;;22.70;41.40;;;;;;5034323;28;20103;-57
2022/03/01 11:24:49;;;;;;;5.10;2.92;;;22.80;41.30;;;;;;5037560;28;20053;-58
2022/03/01 11:27:21;;;;;;;3.53;2.08;;;22.70;41.10;;;;;;5038497;28;20391;-54
2022/03/01 11:29:49;;;;;;;2.65;2.47;;;22.80;41.10;;;;;;5046693;28;20036;-56
2022/03/01 11:32:24;;;;;;;17.63;3.17;;;22.80;41.00;;;;;;5034665;28;20045;-59
2022/03/01 11:35:02;;;;;;;4.70;2.20;;;22.80;40.80;;;;;;5032666;28;20128;-57
2022/03/01 11:37:29;;;;;;;3.70;1.98;;;22.80;40.70;;;;;;5044898;28;20040;-55
2022/03/01 11:39:58;;;;;;;3.45;2.28;;;22.80;40.60;;;;;;5045016;28;20750;-57
2022/03/01 11:42:33;;;;;;;4.55;2.30;;;22.70;40.50;;;;;;5041039;28;20476;-57
2022/03/01 11:45:09;;;;;;;4.00;2.40;;;22.80;40.40;;;;;;5037104;28;20498;-58
2022/03/01 11:47:36;;;;;;;3.83;2.65;;;22.80;40.30;;;;;;5032840;28;20144;-59
2022/03/01 11:50:11;;;;;;;5.45;2.67;;;22.80;40.30;;;;;;5048306;28;20048;-58
2022/03/01 11:52:50;;;;;;;2.42;2.22;;;22.80;40.20;;;;;;5046110;28;20075;-59
2022/03/01 11:55:20;;;;;;;3.75;2.20;;;22.80;40.10;;;;;;5045440;28;20040;-55
2022/03/01 11:57:51;;;;;;;5.25;2.25;;;22.80;40.00;;;;;;5043610;28;20071;-57
2022/03/01 12:00:19;;;;;;;4.40;2.38;;;22.80;40.00;;;;;;5042175;28;20045;-53
2022/03/01 12:02:47;;;;;;;5.15;2.88;;;22.80;39.90;;;;;;5036691;28;20107;-58
2022/03/01 12:05:23;;;;;;;2.65;2.25;;;22.80;39.80;;;;;;5032793;28;20055;-59
2022/03/01 12:07:51;;;;;;;3.90;2.70;;;22.90;39.70;;;;;;5047062;28;20041;-58
2022/03/01 12:10:22;;;;;;;2.60;1.60;;;22.90;39.70;;;;;;5044855;28;20041;-57
2022/03/01 12:12:54;;;;;;;4.10;3.10;;;22.90;39.50;;;;;;5043431;28;20540;-57
2022/03/01 12:15:30;;;;;;;2.90;2.35;;;22.90;39.40;;;;;;5043813;28;20071;-58
2022/03/01 12:17:58;;;;;;;5.03;2.08;;;23.00;39.30;;;;;;5043015;28;20490;-55
2022/03/01 12:20:26;;;;;;;8.23;2.53;;;23.00;39.30;;;;;;5047845;28;20033;-56
2022/03/01 12:22:58;;;;;;;3.55;2.75;;;22.90;39.10;;;;;;5031893;28;20533;-57
2022/03/01 12:25:26;;;;;;;2.60;2.40;;;23.00;39.10;;;;;;5044579;28;20049;-57
2022/03/01 12:27:56;;;;;;;2.83;2.08;;;23.00;39.00;;;;;;5042843;28;20043;-58
2022/03/01 12:30:25;;;;;;;2.60;2.13;;;23.00;38.90;;;;;;5043252;28;20041;-58
2022/03/01 12:32:53;;;;;;;4.18;2.67;;;23.10;38.90;;;;;;5043023;28;20777;-59
2022/03/01 12:35:21;;;;;;;4.95;2.60;;;23.10;38.80;;;;;;5045600;28;20116;-53
2022/03/01 12:37:50;;;;;;;2.40;1.55;;;23.10;38.70;;;;;;5044854;28;20037;-57
2022/03/01 12:40:27;;;;;;;2.53;2.10;;;23.10;39.30;;;;;;5048287;28;20048;-56
2022/03/01 12:43:01;;;;;;;4.20;1.67;;;23.10;38.60;;;;;;5043147;28;20064;-57
2022/03/01 12:45:33;;;;;;;6.90;2.28;;;23.10;38.50;;;;;;5043167;28;20055;-58
2022/03/01 12:48:02;;;;;;;1.75;1.65;;;23.10;38.40;;;;;;5043027;28;20041;-58
2022/03/01 12:50:29;;;;;;;2.63;1.77;;;23.10;38.40;;;;;;5043933;28;20045;-57
2022/03/01 12:52:58;;;;;;;2.90;1.40;;;23.10;38.30;;;;;;5046836;28;20071;-58
2022/03/01 12:55:26;;;;;;;4.18;2.72;;;23.10;38.20;;;;;;5043916;28;20045;-55